Aeroporto :
LOGIN :

Iscrizione | Disclaimer

   EN    FR    IT 

 










Sommario :    VFR   VFR Marginale   IFR   IFR Intensivo   IFR Molto Intensivo
Visibilità : 
Base nubi : 
>= 8 km
>= 3000ft
5 / 8 km
1000 / 3000 ft
1500m / 5 km
500 / 1000 ft
800 / 1500m
200 / 500 ft
< 800m
< 200 ft
Simboli :   Temporali  Nebbia  Neve Forte  Precipitazioni Forti  Vento > 20 kt
SIGMETs :   Varie  Temporali  Ghiacco  Turbolenza  Onda orograficha  Ceneri Vulcaniche







- Altitudine del aeroporto : 436 ft
- Codice IATA : ANG
- Carte del aeroporto


LFBU - Angoulême Brie Champniers

ULTIMO METAR :
  • 200900Z AUTO 23006KT 5000 BR BKN004 OVC014 13/12 Q1014 BECMG BKN020

METARs OBSOLETI :
  • 200830Z AUTO 24006KT 4300 BR OVC003 12/12 Q1014 BECMG 9999 NSW BKN020
  • 200800Z AUTO 23004KT 190V260 3800 BR OVC004 12/11 Q1013 BECMG 9999 NSW BKN020
  • 200730Z AUTO 24004KT 190V260 2400 BR VV/// 12/11 Q1013 BECMG 9999 NSW BKN020
  • 200700Z AUTO 23004KT 1500 1300 R28/1800D BR OVC002 11/11 Q1013 TEMPO VV/// BECMG 9999 NSW
  • 200630Z AUTO 25003KT 220V290 3500 BR OVC003 11/11 Q1013 TEMPO VV/// BECMG 9999 NSW

TAF TAF LFBU
Valido dal 20 a 06 ore il 21 a 06 ore UTC


200500Z 2006/2106 27005KT 9999 BKN010
TEMPO 2006/2008 0800 FG VV///
BECMG 2008/2010 BKN020
PROB40
TEMPO 2011/2018 4000 -SHRA BKN025TCU
Nessun NOTAM noto per questo aeroporto.



MetMap, La meteo Aeronautica in un colpo d'occhio ! - Copyright ORBIFLY Dicembre 2007 - Disclaimer

ORBIFLY MET'MAP TEAM :

Programmazione e sviluppo : Alexandra Zaïnal
Concezione e sviluppo : Baudouin d'Aumeries
Co-Programmazione e sviluppo : Marc-Olivier Méhu
Supporto tecnico e logistico : Manuel Goepfert
Aiuto per la traduzione : Arnaldo La Scala

Contatto : metmap@orbifly.com




FONTI E CREDITI :

   NOAA